Time;durP1;ratioP1;P1;durP2;ratioP2;P2;SDS_P1;SDS_P2;PMS_P1;PMS_P2;Temp;Humidity;BMP_temperature;BMP_pressure;BME280_temperature;BME280_humidity;BME280_pressure;Samples;Min_cycle;Max_cycle;Signal;HPM_P1;HPM_P2
2022/03/20 00:02:00;;;;;;;16.63;6.90;;;;;;;3.09;75.23;103200.56;6051561;28;20318;-71
2022/03/20 00:04:56;;;;;;;19.13;6.90;;;;;;;3.05;75.56;103202.38;6030820;28;20461;-71
2022/03/20 00:07:51;;;;;;;17.30;7.47;;;;;;;3.02;75.52;103194.59;6028665;28;20417;-72
2022/03/20 00:10:48;;;;;;;17.67;7.97;;;;;;;3.05;74.89;103202.38;6027929;28;20691;-71
2022/03/20 00:13:44;;;;;;;18.02;8.02;;;;;;;3.00;74.24;103197.25;6028334;28;20113;-71
2022/03/20 00:16:39;;;;;;;19.70;7.47;;;;;;;2.90;74.97;103190.53;6029176;28;20079;-72
2022/03/20 00:19:34;;;;;;;14.13;6.67;;;;;;;2.81;75.48;103193.34;6041346;28;20141;-71
2022/03/20 00:22:30;;;;;;;18.37;7.93;;;;;;;2.68;76.45;103191.91;6038143;28;20033;-70
2022/03/20 00:25:25;;;;;;;19.05;7.50;;;;;;;2.70;76.81;103204.94;6048887;28;20038;-69
2022/03/20 00:28:25;;;;;;;21.92;9.75;;;;;;;2.63;76.05;103200.75;6028830;28;20031;-71
2022/03/20 00:31:21;;;;;;;18.58;7.95;;;;;;;2.51;76.49;103193.16;6027660;28;20362;-70
2022/03/20 00:34:16;;;;;;;18.92;8.07;;;;;;;2.45;76.58;103193.31;6028149;28;20030;-68
2022/03/20 00:37:12;;;;;;;18.93;7.63;;;;;;;2.44;76.67;103197.69;6028624;28;20064;-72
2022/03/20 00:40:07;;;;;;;21.67;8.85;;;;;;;2.39;76.09;103195.16;6027162;28;20037;-70
2022/03/20 00:43:04;;;;;;;21.27;8.52;;;;;;;2.40;76.18;103189.03;6027174;28;20832;-71
2022/03/20 00:45:59;;;;;;;20.73;8.98;;;;;;;2.40;76.01;103185.53;6027744;28;20485;-70
2022/03/20 00:48:54;;;;;;;18.00;8.17;;;;;;;2.29;75.48;103177.94;6028094;28;20026;-71
2022/03/20 00:51:50;;;;;;;18.93;8.57;;;;;;;2.30;76.10;103179.66;6035659;28;20065;-71
2022/03/20 00:54:45;;;;;;;24.33;10.03;;;;;;;2.28;75.59;103185.81;6046619;28;20168;-70
2022/03/20 00:57:40;;;;;;;20.37;9.37;;;;;;;2.28;75.40;103176.19;6037920;28;20084;-69
2022/03/20 01:00:36;;;;;;;23.40;9.53;;;;;;;2.20;75.08;103180.72;6042767;28;20281;-70
2022/03/20 01:03:31;;;;;;;18.70;8.30;;;;;;;2.18;75.46;103177.28;6024913;28;20421;-69
2022/03/20 01:06:26;;;;;;;21.47;9.47;;;;;;;2.13;75.33;103171.28;6029403;28;20088;-72
2022/03/20 01:09:22;;;;;;;17.00;8.00;;;;;;;2.12;75.48;103161.69;6027452;28;20038;-72
2022/03/20 01:12:17;;;;;;;19.98;8.38;;;;;;;2.06;75.16;103159.25;6026406;28;20030;-71
2022/03/20 01:15:13;;;;;;;22.23;8.83;;;;;;;2.02;75.76;103162.78;6037505;28;20092;-72
2022/03/20 01:18:08;;;;;;;21.98;7.78;;;;;;;1.97;74.73;103159.41;6035094;28;20497;-72
2022/03/20 01:21:04;;;;;;;20.08;8.73;;;;;;;1.91;75.16;103154.31;6031306;28;20470;-72
2022/03/20 01:23:59;;;;;;;22.67;8.68;;;;;;;1.84;74.73;103157.06;6027450;28;20042;-70
2022/03/20 01:26:56;;;;;;;19.63;9.60;;;;;;;1.92;74.53;103155.16;6031165;28;20108;-71
2022/03/20 01:29:51;;;;;;;25.70;8.02;;;;;;;1.84;74.87;103147.47;6051013;28;20029;-71
2022/03/20 01:32:46;;;;;;;20.53;8.80;;;;;;;1.84;75.01;103149.22;6042934;28;20080;-70
2022/03/20 01:35:42;;;;;;;17.80;7.20;;;;;;;1.76;74.75;103141.53;6035304;28;20045;-69
2022/03/20 01:38:39;;;;;;;19.65;8.43;;;;;;;1.69;75.24;103127.72;6030791;28;20042;-71
2022/03/20 01:41:34;;;;;;;18.80;8.70;;;;;;;1.70;75.14;103128.56;6030290;28;20172;-72
2022/03/20 01:44:31;;;;;;;23.50;8.17;;;;;;;1.65;74.06;103122.59;6050610;28;20026;-72
2022/03/20 01:47:26;;;;;;;25.17;10.77;;;;;;;1.63;74.92;103127.00;6037187;28;20528;-69
2022/03/20 01:50:27;;;;;;;21.40;9.13;;;;;;;1.57;74.94;103127.09;6026032;28;20042;-71
2022/03/20 01:53:23;;;;;;;21.80;11.27;;;;;;;1.49;75.20;103113.31;6047710;28;20034;-69
2022/03/20 01:56:19;;;;;;;23.83;8.98;;;;;;;1.50;75.38;103115.88;6038072;28;20050;-70
2022/03/20 01:59:15;;;;;;;21.55;9.65;;;;;;;1.47;73.96;103099.41;6042748;28;20030;-70
2022/03/20 02:02:11;;;;;;;20.55;9.85;;;;;;;1.44;73.36;103096.84;6032694;28;20101;-72
2022/03/20 02:05:09;;;;;;;22.25;7.90;;;;;;;1.40;73.41;103103.00;6026413;28;20026;-71
2022/03/20 02:08:04;;;;;;;19.50;8.68;;;;;;;1.37;73.38;103101.31;6025896;28;20046;-69
2022/03/20 02:10:59;;;;;;;22.60;9.48;;;;;;;1.37;72.82;103103.94;6025067;28;20026;-68
2022/03/20 02:13:55;;;;;;;22.43;10.50;;;;;;;1.32;72.76;103090.09;6026220;28;20042;-71
2022/03/20 02:16:50;;;;;;;21.87;8.83;;;;;;;1.35;72.94;103083.94;6026151;28;20622;-71
2022/03/20 02:19:46;;;;;;;21.00;9.53;;;;;;;1.34;72.32;103093.53;6025581;28;20454;-71
2022/03/20 02:22:43;;;;;;;27.77;9.73;;;;;;;1.24;72.45;103080.66;6024226;28;20281;-70
2022/03/20 02:25:46;;;;;;;20.38;8.73;;;;;;;1.25;72.15;103080.63;6025435;28;20381;-71
2022/03/20 02:28:42;;;;;;;21.02;7.93;;;;;;;1.25;72.04;103071.97;6046245;28;20110;-69
2022/03/20 02:31:37;;;;;;;19.37;8.80;;;;;;;1.23;71.79;103073.72;6035547;28;20050;-71
2022/03/20 02:34:33;;;;;;;16.17;7.93;;;;;;;1.17;71.38;103059.00;6025933;28;20105;-72
2022/03/20 02:37:28;;;;;;;20.88;9.07;;;;;;;1.08;71.29;103062.69;6025612;28;20545;-69
2022/03/20 02:40:24;;;;;;;24.67;9.18;;;;;;;1.10;70.74;103058.28;6034356;28;20030;-71
2022/03/20 02:43:19;;;;;;;23.33;9.60;;;;;;;1.10;71.18;103057.41;6039910;28;20120;-70
2022/03/20 02:46:14;;;;;;;21.27;8.23;;;;;;;1.05;70.37;103065.34;6028785;28;20261;-71
2022/03/20 02:49:10;;;;;;;19.20;8.10;;;;;;;1.02;70.93;103057.56;6048238;28;20030;-69
2022/03/20 02:52:06;;;;;;;25.35;11.18;;;;;;;1.06;70.29;103059.22;6029983;28;20053;-69
2022/03/20 02:55:02;;;;;;;22.35;9.60;;;;;;;1.03;70.04;103061.88;6025356;28;20049;-73
2022/03/20 02:58:01;;;;;;;22.83;9.23;;;;;;;1.00;70.08;103055.88;6037049;28;20580;-70
2022/03/20 03:00:58;;;;;;;27.48;9.95;;;;;;;0.94;70.21;103051.59;6028912;28;20022;-70
2022/03/20 03:03:53;;;;;;;21.88;9.13;;;;;;;0.88;70.40;103046.50;6049311;28;20548;-69
2022/03/20 03:06:49;;;;;;;19.60;9.40;;;;;;;0.80;70.29;103050.13;6028147;28;20033;-69
2022/03/20 03:12:57;;;;;;;21.52;9.52;;;;;;;0.83;69.36;103045.72;6024505;28;20427;-72
2022/03/20 03:15:54;;;;;;;26.20;10.37;;;;;;;0.72;69.70;103045.03;6025395;28;20201;-70
2022/03/20 03:18:49;;;;;;;20.98;7.82;;;;;;;0.77;69.99;103050.16;6037869;28;20026;-72
2022/03/20 03:21:45;;;;;;;23.40;8.53;;;;;;;0.74;69.11;103040.63;6042185;28;20432;-72
2022/03/20 03:24:41;;;;;;;17.43;7.53;;;;;;;0.67;69.33;103040.78;6027848;28;20053;-69
2022/03/20 03:27:36;;;;;;;19.45;8.73;;;;;;;0.67;69.42;103048.59;6025045;28;20122;-70
2022/03/20 03:30:32;;;;;;;23.37;9.63;;;;;;;0.59;69.48;103051.34;6024916;28;20121;-72
2022/03/20 03:33:28;;;;;;;19.95;8.80;;;;;;;0.49;69.69;103057.63;6026252;28;20073;-69
2022/03/20 03:36:24;;;;;;;23.13;9.05;;;;;;;0.49;69.74;103049.78;6024981;28;20077;-71
2022/03/20 03:39:19;;;;;;;26.65;9.63;;;;;;;0.43;69.36;103057.69;6051926;28;20343;-72
2022/03/20 03:42:14;;;;;;;25.93;9.03;;;;;;;0.35;69.64;103047.38;6028972;28;20373;-69
2022/03/20 03:45:10;;;;;;;26.88;10.32;;;;;;;0.30;69.91;103046.56;6029509;28;20105;-70
2022/03/20 03:48:06;;;;;;;19.40;8.23;;;;;;;0.25;70.17;103044.91;6029067;28;20473;-72
2022/03/20 03:51:02;;;;;;;24.77;8.75;;;;;;;0.22;69.96;103031.94;6028384;28;20066;-71
2022/03/20 03:53:58;;;;;;;23.17;9.27;;;;;;;0.22;70.15;103042.38;6029025;28;20040;-71
2022/03/20 03:56:53;;;;;;;22.80;8.97;;;;;;;0.19;69.66;103032.81;6041791;28;20386;-71
2022/03/20 03:59:48;;;;;;;21.97;8.23;;;;;;;0.19;69.73;103029.38;6045054;28;20030;-69
2022/03/20 04:02:44;;;;;;;22.50;8.60;;;;;;;0.14;70.09;103025.94;6048795;28;20079;-71
2022/03/20 04:05:40;;;;;;;25.00;10.63;;;;;;;0.20;69.55;103018.03;6038175;28;20072;-70
2022/03/20 04:08:36;;;;;;;20.98;8.20;;;;;;;0.23;68.36;103023.22;6028983;28;20042;-71
2022/03/20 04:11:32;;;;;;;21.23;10.30;;;;;;;0.20;68.48;103008.47;6035192;28;20366;-71
2022/03/20 04:14:28;;;;;;;19.85;8.93;;;;;;;0.29;68.06;103007.47;6044189;28;20026;-69
2022/03/20 04:17:24;;;;;;;26.58;10.18;;;;;;;0.27;67.86;103009.25;6027111;28;20113;-72
2022/03/20 04:20:19;;;;;;;25.47;10.47;;;;;;;0.20;68.05;103007.59;6028066;28;20037;-70
2022/03/20 04:26:29;;;;;;;22.60;8.63;;;;;;;0.15;67.93;103005.06;6028815;28;20034;-69
2022/03/20 04:29:27;;;;;;;21.98;7.30;;;;;;;0.11;67.80;103006.00;6028124;28;20038;-70
2022/03/20 04:32:23;;;;;;;23.23;8.60;;;;;;;0.13;68.44;103000.78;6038985;28;20373;-71
2022/03/20 04:35:24;;;;;;;17.08;7.88;;;;;;;0.08;67.96;102993.03;6043507;28;20046;-71
2022/03/20 04:38:21;;;;;;;24.13;8.20;;;;;;;0.07;67.83;102987.81;6028717;28;20508;-69
2022/03/20 04:41:17;;;;;;;24.50;10.18;;;;;;;0.04;68.22;102990.47;6031925;28;20492;-69
2022/03/20 04:44:13;;;;;;;20.52;10.48;;;;;;;0.08;67.45;102990.41;6032767;28;20040;-69
2022/03/20 05:00:06;;;;;;;25.10;8.75;;;;;;;0.03;67.51;102983.56;6027544;28;19961;-71
2022/03/20 05:03:02;;;;;;;23.73;8.75;;;;;;;0.00;66.92;102982.69;6027127;28;20371;-68
2022/03/20 05:05:57;;;;;;;19.10;7.03;;;;;;;-0.02;67.17;102975.78;6027802;28;20092;-68
2022/03/20 05:08:53;;;;;;;19.20;6.55;;;;;;;-0.06;66.69;102980.19;6043494;28;20355;-71
2022/03/20 05:15:02;;;;;;;22.70;9.68;;;;;;;-0.05;66.42;102968.00;6029591;28;20030;-72
2022/03/20 05:17:57;;;;;;;19.90;8.35;;;;;;;0.02;66.26;102968.78;6033067;28;20486;-72
2022/03/20 05:20:54;;;;;;;20.92;8.90;;;;;;;-0.05;66.09;102966.25;6026972;28;20030;-69
2022/03/20 05:23:49;;;;;;;21.55;9.70;;;;;;;-0.03;66.15;102959.25;6027343;28;20038;-71
2022/03/20 05:26:44;;;;;;;22.97;7.97;;;;;;;0.00;65.25;102969.66;6026604;28;20370;-69
2022/03/20 05:29:40;;;;;;;21.80;8.33;;;;;;;-0.04;65.70;102970.59;6026406;28;20482;-69
2022/03/20 05:32:37;;;;;;;22.35;10.10;;;;;;;-0.02;65.15;102961.00;6026572;28;20351;-68
2022/03/20 05:35:32;;;;;;;19.40;9.10;;;;;;;0.04;65.41;102965.25;6037344;28;20038;-71
2022/03/20 05:38:28;;;;;;;19.10;8.37;;;;;;;0.04;64.80;102960.03;6026802;28;20033;-70
2022/03/20 05:44:38;;;;;;;17.98;6.95;;;;;;;0.05;64.16;102950.47;6026538;28;20034;-70
2022/03/20 05:47:33;;;;;;;20.23;8.00;;;;;;;0.07;64.11;102943.47;6026916;28;20041;-72
2022/03/20 05:50:29;;;;;;;21.10;8.07;;;;;;;0.10;63.67;102938.22;6025604;28;20073;-75
2022/03/20 05:53:24;;;;;;;20.08;8.05;;;;;;;0.21;63.53;102937.16;6026062;28;20061;-73
2022/03/20 05:59:35;;;;;;;19.67;9.70;;;;;;;0.50;61.63;102939.25;6026165;28;20115;-72
2022/03/20 06:02:30;;;;;;;23.15;8.70;;;;;;;0.64;61.19;102936.41;6025115;28;20036;-71
2022/03/20 06:05:26;;;;;;;21.27;8.83;;;;;;;0.65;61.03;102933.78;6026457;28;20030;-71
2022/03/20 06:08:21;;;;;;;13.30;6.50;;;;;;;0.72;60.55;102944.97;6032148;28;20035;-72
2022/03/20 06:11:16;;;;;;;18.13;7.83;;;;;;;0.77;60.37;102930.94;6034226;28;20073;-72
2022/03/20 06:14:12;;;;;;;21.77;7.87;;;;;;;0.85;60.39;102936.00;6036508;28;20401;-69
2022/03/20 06:17:09;;;;;;;22.67;9.77;;;;;;;0.80;60.20;102933.47;6026429;28;20269;-72
2022/03/20 06:20:08;;;;;;;25.27;9.57;;;;;;;0.89;59.93;102930.72;6025035;28;20046;-72
2022/03/20 06:23:04;;;;;;;22.20;8.38;;;;;;;0.99;59.93;102940.06;6026479;28;20048;-69
2022/03/20 06:25:59;;;;;;;19.07;7.80;;;;;;;1.11;59.65;102934.59;6025418;28;20038;-70
2022/03/20 06:28:55;;;;;;;23.73;8.97;;;;;;;1.38;58.40;102930.56;6026395;28;20141;-68
2022/03/20 06:31:52;;;;;;;20.52;8.35;;;;;;;1.47;57.37;102919.06;6024373;28;20018;-69
2022/03/20 06:34:48;;;;;;;20.85;9.65;;;;;;;1.56;56.51;102924.06;6036530;28;20362;-71
2022/03/20 06:37:44;;;;;;;19.27;7.27;;;;;;;1.76;56.83;102929.72;6040965;28;20034;-70
2022/03/20 06:40:40;;;;;;;19.45;8.35;;;;;;;1.76;56.15;102930.56;6024827;28;20049;-70
2022/03/20 06:43:36;;;;;;;21.17;8.67;;;;;;;1.97;55.92;102938.78;6025834;28;20374;-72
2022/03/20 06:46:33;;;;;;;17.60;8.13;;;;;;;1.97;55.27;102944.91;6027773;28;20091;-70
2022/03/20 06:49:28;;;;;;;16.17;7.10;;;;;;;2.16;55.00;102940.06;6023954;28;20062;-72
2022/03/20 06:52:24;;;;;;;18.35;7.55;;;;;;;2.27;55.10;102945.91;6032608;28;20485;-71
2022/03/20 06:55:19;;;;;;;15.20;6.80;;;;;;;2.28;53.14;102935.38;6036385;28;20034;-70
2022/03/20 06:58:15;;;;;;;18.42;7.63;;;;;;;2.42;53.72;102936.81;6037762;28;20050;-71
2022/03/20 07:01:10;;;;;;;21.63;8.48;;;;;;;2.59;53.61;102937.22;6048519;28;20465;-70
2022/03/20 07:04:05;;;;;;;23.13;8.57;;;;;;;2.79;52.03;102920.09;6048833;28;20515;-68
2022/03/20 07:07:01;;;;;;;22.07;9.53;;;;;;;2.77;51.69;102928.88;6048929;28;20025;-70
2022/03/20 07:09:56;;;;;;;16.02;7.32;;;;;;;2.78;51.97;102927.97;6049266;28;20018;-70
2022/03/20 07:16:07;;;;;;;20.27;9.50;;;;;;;2.95;51.18;102923.13;6053913;28;20033;-69
2022/03/20 07:19:04;;;;;;;20.85;9.27;;;;;;;3.04;51.66;102920.25;6053541;28;20033;-69
2022/03/20 07:21:59;;;;;;;21.17;7.63;;;;;;;3.15;51.15;102920.81;6052851;28;20450;-70
2022/03/20 07:29:29;;;;;;;22.70;9.27;;;;;;;3.39;51.00;102913.97;6053726;28;20033;-70
2022/03/20 07:31:24;;;;;;;26.83;8.88;;;;;;;3.60;50.81;102924.69;6052853;28;20029;-69
2022/03/20 07:34:19;;;;;;;22.83;10.10;;;;;;;3.65;51.23;102919.28;6053091;28;20033;-71
2022/03/20 07:37:16;;;;;;;21.83;7.90;;;;;;;3.80;50.25;102918.81;6052787;28;20365;-71
2022/03/20 07:40:12;;;;;;;22.98;9.73;;;;;;;3.98;49.84;102914.72;6052513;28;20024;-71
2022/03/20 07:43:08;;;;;;;21.17;8.90;;;;;;;4.08;49.38;102910.88;6052611;28;20025;-71
2022/03/20 07:46:04;;;;;;;16.70;7.93;;;;;;;4.23;49.18;102910.41;6052662;28;20032;-71
2022/03/20 07:49:00;;;;;;;26.52;8.40;;;;;;;4.52;48.58;102907.63;6043715;28;20493;-73
2022/03/20 07:51:57;;;;;;;23.92;9.18;;;;;;;4.59;48.48;102914.38;6049375;28;20447;-71
2022/03/20 07:54:53;;;;;;;22.27;10.27;;;;;;;4.63;48.62;102910.75;6051670;28;20061;-69
2022/03/20 07:57:49;;;;;;;21.52;10.55;;;;;;;4.74;48.22;102913.84;6044293;28;20073;-71
2022/03/20 08:00:44;;;;;;;23.02;9.48;;;;;;;4.91;48.25;102900.09;6051242;28;20033;-72
2022/03/20 08:28:21;;;;;;;21.50;8.25;;;;;;;6.04;46.01;102878.13;6150756;23;20059;-76
2022/03/20 08:31:16;;;;;;;27.37;10.77;;;;;;;6.09;46.33;102879.66;5979491;29;20045;-72
2022/03/20 08:34:13;;;;;;;21.20;9.35;;;;;;;6.03;45.72;102876.44;5979698;28;20270;-71
2022/03/20 08:37:08;;;;;;;22.50;10.90;;;;;;;6.23;45.72;102864.13;5982413;29;20458;-74
2022/03/20 08:40:04;;;;;;;20.30;9.68;;;;;;;6.33;45.16;102875.16;5979748;28;20050;-74
2022/03/20 08:43:00;;;;;;;24.63;11.13;;;;;;;6.65;44.89;102865.84;5989561;28;20039;-71
2022/03/20 08:45:56;;;;;;;25.58;9.85;;;;;;;6.71;44.81;102866.44;5981891;29;20410;-73
2022/03/20 08:48:51;;;;;;;26.13;12.50;;;;;;;6.76;43.98;102864.44;5973882;28;20078;-76
2022/03/20 08:51:46;;;;;;;21.13;9.40;;;;;;;6.95;43.46;102862.69;6000904;28;20081;-72
2022/03/20 08:54:42;;;;;;;21.75;10.65;;;;;;;7.12;43.48;102860.09;5978895;29;20094;-71
2022/03/20 08:57:39;;;;;;;25.20;11.88;;;;;;;7.37;43.25;102851.03;5980888;29;20039;-72
2022/03/20 09:00:34;;;;;;;23.02;11.48;;;;;;;7.32;42.88;102850.41;5968359;28;20039;-72
2022/03/20 09:03:30;;;;;;;23.07;10.37;;;;;;;7.55;42.62;102842.25;5973207;29;20038;-71
2022/03/20 09:06:25;;;;;;;20.97;9.17;;;;;;;7.71;42.67;102846.72;5978722;28;20338;-76
2022/03/20 09:09:20;;;;;;;22.30;12.37;;;;;;;7.71;41.26;102840.56;5972474;29;20043;-71
2022/03/20 09:12:16;;;;;;;23.43;9.60;;;;;;;7.83;41.62;102832.03;5980065;28;20162;-74
2022/03/20 09:15:16;;;;;;;18.33;8.97;;;;;;;8.02;41.26;102827.53;5997739;28;20271;-74
2022/03/20 09:21:27;;;;;;;22.63;11.38;;;;;;;8.36;40.70;102832.00;5987431;28;20482;-73
2022/03/20 09:24:22;;;;;;;22.25;10.20;;;;;;;8.82;40.41;102830.41;5979724;29;20042;-75
2022/03/20 09:27:17;;;;;;;21.67;10.57;;;;;;;8.53;38.66;102812.59;5967203;28;20450;-70
2022/03/20 09:30:13;;;;;;;20.93;11.60;;;;;;;8.58;38.55;102815.88;5984537;28;20282;-71
2022/03/20 09:33:09;;;;;;;21.90;10.70;;;;;;;8.67;38.50;102818.03;5980473;29;20286;-74
2022/03/20 09:36:04;;;;;;;21.65;10.13;;;;;;;8.62;38.35;102828.81;5963327;29;20098;-71
2022/03/20 09:39:00;;;;;;;14.32;7.90;;;;;;;8.54;38.94;102830.16;5977226;28;20042;-73
2022/03/20 09:41:58;;;;;;;20.20;10.97;;;;;;;8.41;38.83;102813.25;5978720;29;20031;-74
2022/03/20 09:44:54;;;;;;;19.88;9.32;;;;;;;8.56;38.32;102815.91;5979823;29;20397;-73
2022/03/20 09:47:51;;;;;;;18.02;9.45;;;;;;;8.59;37.91;102738.25;5974314;29;20062;-70
2022/03/20 09:50:47;;;;;;;20.35;9.82;;;;;;;8.75;37.90;102797.31;5971931;28;20461;-71
2022/03/20 09:53:42;;;;;;;21.90;11.15;;;;;;;8.53;37.64;102776.44;5997598;28;20043;-74
2022/03/20 09:56:38;;;;;;;19.00;10.40;;;;;;;8.62;38.35;102768.00;5979837;29;20542;-71
2022/03/20 09:59:34;;;;;;;19.50;9.77;;;;;;;8.83;37.71;102766.81;5999115;28;20035;-72
2022/03/20 10:02:30;;;;;;;19.20;9.15;;;;;;;8.99;38.25;102770.34;5989034;28;20085;-73
2022/03/20 10:05:28;;;;;;;17.35;8.07;;;;;;;9.02;37.60;102764.03;5979258;28;20043;-74
2022/03/20 10:08:23;;;;;;;22.85;11.00;;;;;;;9.10;37.69;102740.66;5974079;29;20027;-71
2022/03/20 10:11:19;;;;;;;21.03;9.70;;;;;;;9.06;37.67;102768.22;5978728;29;20481;-71
2022/03/20 10:14:20;;;;;;;16.40;8.23;;;;;;;9.40;37.06;102751.28;5980454;28;20394;-74
2022/03/20 10:17:16;;;;;;;17.70;9.57;;;;;;;9.34;36.78;102743.69;5978951;29;20059;-72
2022/03/20 10:20:13;;;;;;;17.02;7.13;;;;;;;9.44;36.95;102735.13;5976053;29;20408;-74
2022/03/20 10:23:30;;;;;;;18.25;8.48;;;;;;;9.71;37.10;102735.28;5986792;28;20030;-75
2022/03/20 10:26:27;;;;;;;19.90;9.50;;;;;;;10.00;36.42;102739.69;5983276;28;20035;-73
2022/03/20 10:29:22;;;;;;;21.23;11.15;;;;;;;9.83;36.71;102723.13;5978776;28;20031;-72
2022/03/20 10:32:18;;;;;;;17.03;7.93;;;;;;;10.15;35.82;102738.81;5983282;28;20489;-73
2022/03/20 10:35:13;;;;;;;20.30;9.27;;;;;;;10.31;35.54;102740.50;5974785;29;20130;-71
2022/03/20 10:38:09;;;;;;;19.83;8.77;;;;;;;10.06;34.92;102733.16;5976646;28;20039;-74
2022/03/20 10:41:26;;;;;;;16.93;10.00;;;;;;;10.01;35.29;102730.81;5954888;29;20035;-74
2022/03/20 10:44:26;;;;;;;16.80;7.80;;;;;;;10.16;34.58;102729.91;5979810;28;20034;-73
2022/03/20 10:47:22;;;;;;;19.33;10.68;;;;;;;9.95;35.24;102715.28;5981890;28;20036;-71
2022/03/20 10:50:17;;;;;;;19.95;9.73;;;;;;;10.22;35.00;102720.72;5992326;28;20093;-73
2022/03/20 10:53:12;;;;;;;18.17;8.93;;;;;;;10.04;34.92;102727.13;6009119;28;20041;-72
2022/03/20 10:56:08;;;;;;;21.73;10.50;;;;;;;10.12;35.35;102722.19;6010385;28;20034;-74
2022/03/20 10:59:14;;;;;;;20.70;9.43;;;;;;;10.21;35.13;102710.22;6007242;28;20038;-73
2022/03/20 11:02:23;;;;;;;17.17;9.20;;;;;;;10.15;35.10;102717.59;6009686;28;20117;-72
2022/03/20 11:05:20;;;;;;;20.33;8.90;;;;;;;10.20;35.04;102724.41;6000431;28;20043;-74
2022/03/20 11:08:18;;;;;;;17.83;8.73;;;;;;;10.17;35.54;102691.00;5958997;28;20075;-71
2022/03/20 11:11:13;;;;;;;16.88;8.88;;;;;;;10.34;35.74;102684.63;6005662;28;20028;-74
2022/03/20 11:14:10;;;;;;;21.33;10.00;;;;;;;10.69;35.49;102692.06;5994947;28;20039;-73
2022/03/20 11:17:06;;;;;;;15.30;8.07;;;;;;;10.76;34.92;102693.38;6005562;28;20039;-73
2022/03/20 11:20:02;;;;;;;22.20;8.63;;;;;;;11.12;34.91;102686.63;5979216;29;20486;-72
2022/03/20 11:22:59;;;;;;;19.98;9.30;;;;;;;11.23;34.46;102674.34;5986752;28;20035;-71
2022/03/20 11:25:55;;;;;;;15.50;8.00;;;;;;;11.39;33.90;102682.13;5985432;28;20122;-74
2022/03/20 11:28:54;;;;;;;13.68;8.15;;;;;;;11.29;32.03;102649.19;5990056;28;20477;-74
2022/03/20 11:31:50;;;;;;;17.20;7.95;;;;;;;11.59;32.09;102660.41;6008058;28;20038;-75
2022/03/20 11:34:46;;;;;;;13.87;6.30;;;;;;;11.33;32.10;102671.94;6008554;28;20062;-72
2022/03/20 11:37:47;;;;;;;17.85;7.97;;;;;;;11.10;32.09;102681.44;6002170;28;20042;-72
2022/03/20 11:41:12;;;;;;;16.10;7.80;;;;;;;11.52;31.95;102685.69;5985548;29;20398;-73
2022/03/20 11:44:10;;;;;;;17.20;8.70;;;;;;;11.34;31.79;102682.44;5986564;29;20035;-74
2022/03/20 11:47:14;;;;;;;17.92;7.68;;;;;;;11.42;32.40;102660.69;5985172;28;20035;-75
2022/03/20 11:50:11;;;;;;;15.63;8.35;;;;;;;11.33;31.46;102656.84;5979200;28;20041;-72
2022/03/20 11:53:06;;;;;;;18.30;8.60;;;;;;;11.57;32.36;102666.78;6007788;28;20039;-74
2022/03/20 11:56:02;;;;;;;17.03;8.70;;;;;;;11.48;31.39;102647.00;6009698;28;20066;-73
2022/03/20 11:58:58;;;;;;;16.80;8.38;;;;;;;11.38;31.84;102637.94;5964312;28;20121;-73
2022/03/20 12:02:02;;;;;;;18.33;8.73;;;;;;;11.32;32.04;102627.72;6005044;28;20114;-73
2022/03/20 12:05:16;;;;;;;12.25;6.38;;;;;;;11.45;31.64;102659.63;5999243;28;20038;-72
2022/03/20 12:08:31;;;;;;;12.48;7.03;;;;;;;11.67;31.73;102660.72;5962280;29;20051;-72
2022/03/20 12:11:47;;;;;;;16.88;9.13;;;;;;;11.65;31.66;102657.31;5971383;29;20177;-72
2022/03/20 12:14:53;;;;;;;15.93;8.10;;;;;;;11.63;31.75;102651.25;5978077;28;20051;-74
2022/03/20 12:18:03;;;;;;;12.32;6.53;;;;;;;11.62;31.10;102646.91;5992732;28;20051;-73
2022/03/20 12:21:02;;;;;;;14.20;7.53;;;;;;;11.77;31.67;102631.72;5969328;29;20569;-74
2022/03/20 12:24:02;;;;;;;18.35;7.30;;;;;;;11.74;31.61;102643.41;5982024;29;20038;-71
2022/03/20 12:27:23;;;;;;;14.95;8.20;;;;;;;11.86;31.07;102637.25;5982194;29;20043;-72
2022/03/20 12:30:19;;;;;;;17.17;8.60;;;;;;;11.56;31.15;102652.63;5978357;29;20051;-74
2022/03/20 12:33:22;;;;;;;18.27;9.68;;;;;;;11.79;30.89;102654.59;5981848;29;20035;-74
2022/03/20 12:36:27;;;;;;;11.77;6.30;;;;;;;11.77;30.60;102632.56;5981921;29;20034;-74
2022/03/20 12:39:54;;;;;;;15.40;7.03;;;;;;;11.89;30.86;102639.72;5992785;28;20046;-72
2022/03/20 12:42:59;;;;;;;15.07;8.32;;;;;;;11.80;30.26;102624.38;6004347;28;20485;-73
2022/03/20 12:45:56;;;;;;;13.35;7.95;;;;;;;11.88;30.23;102621.19;6005097;28;20038;-72
2022/03/20 12:48:53;;;;;;;14.40;8.35;;;;;;;11.82;30.73;102633.09;6002317;28;20516;-74
2022/03/20 12:51:49;;;;;;;15.75;8.20;;;;;;;11.66;30.78;102616.50;6003953;28;20043;-73
2022/03/20 12:54:55;;;;;;;13.52;7.93;;;;;;;11.89;30.95;102628.22;6003660;28;20377;-74
2022/03/20 12:57:50;;;;;;;9.30;6.32;;;;;;;12.05;30.75;102628.84;5992693;28;20114;-73
2022/03/20 13:00:45;;;;;;;15.00;8.23;;;;;;;12.35;30.81;102631.13;5991439;28;20108;-73
2022/03/20 13:03:42;;;;;;;16.20;8.40;;;;;;;12.11;30.64;102628.41;6004438;28;20034;-73
2022/03/20 13:06:37;;;;;;;15.77;8.45;;;;;;;11.98;30.92;102626.72;5984475;28;20283;-72
2022/03/20 13:09:32;;;;;;;14.73;7.93;;;;;;;12.08;31.42;102617.13;5982584;28;20097;-72
2022/03/20 13:12:28;;;;;;;15.27;8.17;;;;;;;12.26;30.92;102642.41;5990325;28;20053;-73
2022/03/20 13:15:28;;;;;;;13.67;6.77;;;;;;;12.27;30.78;102641.47;5983184;28;20506;-72
2022/03/20 13:18:25;;;;;;;13.65;7.13;;;;;;;12.13;30.92;102620.31;5971213;29;20356;-73
2022/03/20 13:21:20;;;;;;;14.85;8.68;;;;;;;11.96;30.92;102623.34;5971014;29;20085;-73
2022/03/20 13:24:35;;;;;;;15.73;8.07;;;;;;;12.02;30.93;102622.88;5980870;29;20023;-73
2022/03/20 13:27:38;;;;;;;14.73;7.55;;;;;;;12.12;30.98;102611.47;5978404;29;20050;-74
2022/03/20 13:30:37;;;;;;;14.73;7.45;;;;;;;12.20;30.95;102605.63;5979696;29;20047;-73
2022/03/20 13:33:35;;;;;;;10.05;6.22;;;;;;;12.36;30.29;102606.22;5980398;29;20038;-73
2022/03/20 13:36:35;;;;;;;14.50;6.95;;;;;;;12.22;30.52;102599.25;5980171;29;20066;-71
2022/03/20 13:39:30;;;;;;;12.63;6.47;;;;;;;12.17;30.62;102600.53;5977681;29;20121;-71
2022/03/20 13:42:33;;;;;;;14.03;7.67;;;;;;;12.45;30.66;102594.91;5977847;29;20039;-72
2022/03/20 13:45:36;;;;;;;12.07;6.07;;;;;;;12.19;30.08;102593.28;5971881;29;20050;-73
2022/03/20 13:48:32;;;;;;;16.90;7.78;;;;;;;12.15;30.67;102597.13;5958777;28;20484;-72
2022/03/20 13:51:27;;;;;;;13.93;7.07;;;;;;;12.22;30.44;102582.44;5959885;29;20042;-72
2022/03/20 13:54:23;;;;;;;15.05;7.78;;;;;;;12.44;30.27;102593.22;5979814;29;20483;-74
2022/03/20 13:57:20;;;;;;;13.45;7.30;;;;;;;12.31;30.56;102600.41;5979280;28;20042;-72
2022/03/20 14:00:16;;;;;;;14.63;6.57;;;;;;;12.49;30.64;102599.91;5991986;28;20043;-73
2022/03/20 14:03:30;;;;;;;12.38;7.70;;;;;;;12.45;30.31;102594.91;5988116;28;20058;-73
2022/03/20 14:06:36;;;;;;;16.63;7.57;;;;;;;12.55;30.54;102566.66;5979843;28;20031;-73
2022/03/20 14:09:33;;;;;;;15.02;7.40;;;;;;;12.60;30.84;102564.50;5977592;28;20039;-72
2022/03/20 14:12:32;;;;;;;14.88;7.68;;;;;;;12.76;30.83;102575.72;5986003;28;20119;-73
2022/03/20 14:15:27;;;;;;;11.15;6.07;;;;;;;12.63;30.22;102535.00;5992344;28;20174;-73
2022/03/20 14:18:23;;;;;;;12.77;6.68;;;;;;;12.67;30.24;102544.44;5978089;28;20030;-75
2022/03/20 14:21:30;;;;;;;12.63;6.45;;;;;;;12.58;29.54;102557.59;6001431;28;20493;-71
2022/03/20 14:24:43;;;;;;;11.98;5.60;;;;;;;12.54;29.76;102522.38;6002766;28;20031;-74
2022/03/20 14:27:40;;;;;;;11.70;5.72;;;;;;;12.81;30.39;102533.63;5984938;28;20098;-72
2022/03/20 14:40:50;;;;;;;15.55;7.88;;;;;;;12.95;29.28;102519.25;5970948;29;20027;-73
2022/03/20 14:43:45;;;;;;;12.63;6.97;;;;;;;12.82;29.35;102516.69;5973866;28;20033;-72
2022/03/20 14:46:47;;;;;;;13.00;6.90;;;;;;;12.92;29.14;102509.69;5977581;29;20043;-73
2022/03/20 14:49:42;;;;;;;16.17;7.07;;;;;;;13.02;28.82;102504.50;5967422;28;20333;-73
2022/03/20 14:52:38;;;;;;;17.38;8.60;;;;;;;12.93;28.67;102497.22;5987143;28;20030;-72
2022/03/20 14:55:33;;;;;;;15.30;8.13;;;;;;;12.93;29.16;102499.88;5997017;28;20035;-72